Time;durP1;ratioP1;P1;durP2;ratioP2;P2;SDS_P1;SDS_P2;PMS_P1;PMS_P2;Temp;Humidity;BMP_temperature;BMP_pressure;BME280_temperature;BME280_humidity;BME280_pressure;Samples;Min_cycle;Max_cycle;Signal;HPM_P1;HPM_P2
2022/10/31 00:01:12;;;;;;;18.07;10.83;;;;;;;;;;4469004;32;20614;-89
2022/10/31 00:03:40;;;;;;;18.97;10.33;;;;;;;;;;4469415;32;20220;-88
2022/10/31 00:06:08;;;;;;;19.67;10.37;;;;;;;;;;4469452;32;20224;-89
2022/10/31 00:08:37;;;;;;;18.92;10.45;;;;;;;;;;4469034;32;20228;-88
2022/10/31 00:11:04;;;;;;;24.43;10.83;;;;;;;;;;4469129;32;20594;-89
2022/10/31 00:13:32;;;;;;;19.70;10.27;;;;;;;;;;4468912;32;20288;-89
2022/10/31 00:16:00;;;;;;;22.50;11.93;;;;;;;;;;4468880;32;20216;-89
2022/10/31 00:18:27;;;;;;;20.67;11.70;;;;;;;;;;4468801;32;20242;-88
2022/10/31 00:21:01;;;;;;;21.77;12.23;;;;;;;;;;4468829;32;20212;-88
2022/10/31 00:23:29;;;;;;;23.50;13.10;;;;;;;;;;4469263;32;20278;-89
2022/10/31 00:26:02;;;;;;;19.20;13.10;;;;;;;;;;4469147;32;20280;-88
2022/10/31 00:28:30;;;;;;;24.87;13.17;;;;;;;;;;4469144;32;20278;-89
2022/10/31 00:31:28;;;;;;;15.93;8.67;;;;;;;;;;4468622;32;20224;-88
2022/10/31 00:33:55;;;;;;;30.83;7.27;;;;;;;;;;4469071;32;20265;-88
2022/10/31 00:36:23;;;;;;;8.77;6.43;;;;;;;;;;4468038;32;20236;-88
2022/10/31 00:38:50;;;;;;;12.57;7.30;;;;;;;;;;4468884;32;20281;-88
2022/10/31 00:41:18;;;;;;;12.20;6.60;;;;;;;;;;4469013;32;20216;-88
2022/10/31 00:43:45;;;;;;;14.98;7.10;;;;;;;;;;4468239;32;20304;-88
2022/10/31 00:46:14;;;;;;;14.57;7.70;;;;;;;;;;4468933;32;20696;-89
2022/10/31 00:48:41;;;;;;;15.50;8.87;;;;;;;;;;4468809;32;20288;-89
2022/10/31 00:51:08;;;;;;;23.77;9.20;;;;;;;;;;4468910;32;20223;-88
2022/10/31 00:53:39;;;;;;;21.40;9.13;;;;;;;;;;4468306;32;20231;-88
2022/10/31 00:56:07;;;;;;;13.27;7.87;;;;;;;;;;4468314;32;20213;-88
2022/10/31 00:58:34;;;;;;;11.77;6.23;;;;;;;;;;4467251;32;20234;-88
2022/10/31 01:01:01;;;;;;;9.17;4.00;;;;;;;;;;4468818;32;20636;-88
2022/10/31 01:03:29;;;;;;;11.57;6.53;;;;;;;;;;4468230;32;20212;-88
2022/10/31 01:05:58;;;;;;;21.47;7.00;;;;;;;;;;4468623;32;20640;-88
2022/10/31 01:08:25;;;;;;;14.37;7.10;;;;;;;;;;4468610;32;20260;-88
2022/10/31 01:11:01;;;;;;;13.23;7.00;;;;;;;;;;4467451;32;20253;-88
2022/10/31 01:13:28;;;;;;;18.43;8.40;;;;;;;;;;4468621;32;20641;-88
2022/10/31 01:15:56;;;;;;;14.83;7.10;;;;;;;;;;4468179;32;20213;-88
2022/10/31 01:18:23;;;;;;;17.43;7.43;;;;;;;;;;4468567;32;20223;-88
2022/10/31 01:20:58;;;;;;;17.67;7.17;;;;;;;;;;4468621;32;20216;-89
2022/10/31 01:23:25;;;;;;;13.50;7.13;;;;;;;;;;4467536;32;20212;-88
2022/10/31 01:26:01;;;;;;;13.00;6.37;;;;;;;;;;4468037;32;20236;-88
2022/10/31 01:28:28;;;;;;;12.93;7.73;;;;;;;;;;4467762;32;20247;-89
2022/10/31 01:30:55;;;;;;;14.17;5.63;;;;;;;;;;4467053;32;20246;-88
2022/10/31 01:33:22;;;;;;;16.70;5.90;;;;;;;;;;4468483;32;20232;-88
2022/10/31 01:35:49;;;;;;;16.67;11.13;;;;;;;;;;4468571;32;20252;-88
2022/10/31 01:38:15;;;;;;;19.20;7.80;;;;;;;;;;4468241;32;20231;-88
2022/10/31 01:40:42;;;;;;;16.07;9.57;;;;;;;;;;4468053;32;20212;-88
2022/10/31 01:43:14;;;;;;;15.03;8.40;;;;;;;;;;4468051;32;20223;-88
2022/10/31 01:45:42;;;;;;;17.20;9.17;;;;;;;;;;4468308;32;20640;-88
2022/10/31 01:48:14;;;;;;;16.80;9.50;;;;;;;;;;4467791;32;20232;-88
2022/10/31 01:50:43;;;;;;;20.00;9.33;;;;;;;;;;4468465;32;20288;-89
2022/10/31 01:53:11;;;;;;;16.70;9.17;;;;;;;;;;4467909;32;20232;-88
2022/10/31 01:55:42;;;;;;;15.63;9.23;;;;;;;;;;4467578;32;20293;-88
2022/10/31 01:58:17;;;;;;;19.87;8.83;;;;;;;;;;4468565;32;20575;-89
2022/10/31 02:00:47;;;;;;;16.67;9.03;;;;;;;;;;4468552;32;20294;-89
2022/10/31 02:03:16;;;;;;;20.30;8.23;;;;;;;;;;4468079;32;20284;-88
2022/10/31 02:05:47;;;;;;;16.50;7.17;;;;;;;;;;4467769;32;20224;-88
2022/10/31 02:08:18;;;;;;;17.87;8.10;;;;;;;;;;4468115;32;20220;-88
2022/10/31 02:10:45;;;;;;;19.53;8.80;;;;;;;;;;4468453;32;20264;-88
2022/10/31 02:13:15;;;;;;;17.27;8.90;;;;;;;;;;4467724;32;20246;-88
2022/10/31 02:15:49;;;;;;;18.33;8.43;;;;;;;;;;4468390;32;20208;-88
2022/10/31 02:18:17;;;;;;;16.47;7.83;;;;;;;;;;4467994;32;20632;-88
2022/10/31 02:21:07;;;;;;;18.27;10.60;;;;;;;;;;4468166;32;20204;-88
2022/10/31 02:24:09;;;;;;;23.17;12.03;;;;;;;;;;4467160;32;20616;-89
2022/10/31 02:26:54;;;;;;;19.90;11.60;;;;;;;;;;4471016;32;20204;-89
2022/10/31 02:29:52;;;;;;;22.47;11.20;;;;;;;;;;4469810;32;20713;-88
2022/10/31 02:32:27;;;;;;;18.90;10.37;;;;;;;;;;4470881;32;20215;-89
2022/10/31 02:34:59;;;;;;;23.57;11.60;;;;;;;;;;4470946;32;20202;-88
2022/10/31 02:37:35;;;;;;;19.63;12.37;;;;;;;;;;4470773;32;20258;-89
2022/10/31 02:40:10;;;;;;;23.77;11.03;;;;;;;;;;4470871;32;20220;-89
2022/10/31 02:42:44;;;;;;;22.87;11.93;;;;;;;;;;4469405;32;20630;-89
2022/10/31 02:45:18;;;;;;;17.70;10.97;;;;;;;;;;4470801;32;20275;-89
2022/10/31 02:47:48;;;;;;;21.53;11.83;;;;;;;;;;4470072;32;20236;-88
2022/10/31 02:50:23;;;;;;;28.17;16.37;;;;;;;;;;4469780;32;20296;-88
2022/10/31 02:52:52;;;;;;;23.97;14.50;;;;;;;;;;4470389;32;20220;-88
2022/10/31 02:55:45;;;;;;;34.30;19.83;;;;;;;;;;4470477;32;20230;-88
2022/10/31 02:58:18;;;;;;;40.40;19.03;;;;;;;;;;4469920;32;20247;-88
2022/10/31 03:00:58;;;;;;;46.93;23.57;;;;;;;;;;4469966;32;20534;-89
2022/10/31 03:03:34;;;;;;;46.50;24.30;;;;;;;;;;4469394;32;20200;-89
2022/10/31 03:06:09;;;;;;;37.37;19.53;;;;;;;;;;4469031;32;20393;-88
2022/10/31 03:08:42;;;;;;;39.27;19.03;;;;;;;;;;4470368;32;20215;-88
2022/10/31 03:11:11;;;;;;;34.90;21.00;;;;;;;;;;4470265;32;20226;-88
2022/10/31 03:13:42;;;;;;;47.87;22.77;;;;;;;;;;4470221;32;20307;-88
2022/10/31 03:16:15;;;;;;;41.10;21.87;;;;;;;;;;4470295;32;20570;-88
2022/10/31 03:18:47;;;;;;;40.93;19.00;;;;;;;;;;4470289;32;20234;-89
2022/10/31 03:21:17;;;;;;;39.00;18.90;;;;;;;;;;4470231;32;20264;-88
2022/10/31 03:23:47;;;;;;;36.50;18.77;;;;;;;;;;4469667;32;20216;-88
2022/10/31 03:26:17;;;;;;;31.00;18.10;;;;;;;;;;4468354;32;20243;-88
2022/10/31 03:28:47;;;;;;;49.60;19.73;;;;;;;;;;4469596;32;20208;-88
2022/10/31 03:31:18;;;;;;;36.47;19.43;;;;;;;;;;4470110;32;20204;-88
2022/10/31 03:33:48;;;;;;;36.93;20.90;;;;;;;;;;4469999;32;20230;-88
2022/10/31 03:36:16;;;;;;;47.37;25.53;;;;;;;;;;4467795;32;20212;-88
2022/10/31 03:38:46;;;;;;;41.47;21.07;;;;;;;;;;4469165;32;20248;-88
2022/10/31 03:41:20;;;;;;;26.30;15.00;;;;;;;;;;4470388;32;20232;-88
2022/10/31 03:43:53;;;;;;;26.07;15.37;;;;;;;;;;4471535;32;20264;-88
2022/10/31 03:46:20;;;;;;;32.27;15.73;;;;;;;;;;4478158;32;20237;-88
2022/10/31 03:48:49;;;;;;;30.13;15.77;;;;;;;;;;4485464;32;20252;-88
2022/10/31 03:51:23;;;;;;;23.13;15.03;;;;;;;;;;4483087;32;20248;-89
2022/10/31 03:54:05;;;;;;;29.73;14.77;;;;;;;;;;4472975;32;20593;-88
2022/10/31 03:56:38;;;;;;;24.43;15.50;;;;;;;;;;4471505;32;20207;-88
2022/10/31 03:59:10;;;;;;;25.87;16.10;;;;;;;;;;4468782;32;20243;-88
2022/10/31 04:01:42;;;;;;;47.13;29.73;;;;;;;;;;4470069;32;20268;-88
2022/10/31 04:04:12;;;;;;;40.10;23.80;;;;;;;;;;4469410;32;20220;-89
2022/10/31 04:06:42;;;;;;;37.33;20.80;;;;;;;;;;4469436;32;20254;-88
2022/10/31 04:09:13;;;;;;;36.77;17.93;;;;;;;;;;4469312;32;20690;-88
2022/10/31 04:11:46;;;;;;;27.57;16.63;;;;;;;;;;4469548;32;20628;-88
2022/10/31 04:14:13;;;;;;;26.83;17.17;;;;;;;;;;4469532;32;20596;-88
2022/10/31 04:16:44;;;;;;;32.33;19.43;;;;;;;;;;4469845;32;20720;-88
2022/10/31 04:19:15;;;;;;;27.63;16.57;;;;;;;;;;4469950;32;20548;-88
2022/10/31 04:21:43;;;;;;;26.07;16.37;;;;;;;;;;4476549;32;20263;-88
2022/10/31 04:24:11;;;;;;;21.57;11.87;;;;;;;;;;4485688;32;20330;-88
2022/10/31 04:26:38;;;;;;;21.87;12.50;;;;;;;;;;4485783;32;20282;-88
2022/10/31 04:29:04;;;;;;;24.20;11.47;;;;;;;;;;4485294;32;20240;-88
2022/10/31 04:31:31;;;;;;;21.23;11.77;;;;;;;;;;4478690;32;20213;-89
2022/10/31 04:33:58;;;;;;;20.17;11.60;;;;;;;;;;4472502;32;20291;-89
2022/10/31 04:36:26;;;;;;;18.37;11.97;;;;;;;;;;4472511;32;20207;-88
2022/10/31 04:38:53;;;;;;;17.60;11.07;;;;;;;;;;4471612;32;20236;-89
2022/10/31 04:41:20;;;;;;;25.20;12.13;;;;;;;;;;4468254;32;20212;-88
2022/10/31 04:43:47;;;;;;;36.30;16.93;;;;;;;;;;4469338;32;20630;-89
2022/10/31 04:46:16;;;;;;;39.97;19.80;;;;;;;;;;4468002;32;20276;-88
2022/10/31 04:48:44;;;;;;;37.53;22.67;;;;;;;;;;4468684;32;20325;-88
2022/10/31 04:51:10;;;;;;;41.40;25.23;;;;;;;;;;4469011;32;20223;-88
2022/10/31 04:53:44;;;;;;;45.50;24.80;;;;;;;;;;4468979;32;20266;-88
2022/10/31 04:56:12;;;;;;;47.47;22.43;;;;;;;;;;4469061;32;20212;-90
2022/10/31 04:58:44;;;;;;;46.33;25.53;;;;;;;;;;4468333;32;20228;-88
2022/10/31 05:01:11;;;;;;;40.50;24.00;;;;;;;;;;4468789;32;20234;-88
2022/10/31 05:03:39;;;;;;;39.20;21.70;;;;;;;;;;4468121;32;20640;-88
2022/10/31 05:06:06;;;;;;;33.13;18.30;;;;;;;;;;4468165;32;20208;-88
2022/10/31 05:08:33;;;;;;;41.53;20.33;;;;;;;;;;4468504;32;20676;-89
2022/10/31 05:11:02;;;;;;;41.07;20.70;;;;;;;;;;4468147;32;20264;-88
2022/10/31 05:13:30;;;;;;;34.43;18.63;;;;;;;;;;4468616;32;20208;-88
2022/10/31 05:15:57;;;;;;;30.00;18.37;;;;;;;;;;4468153;32;20231;-88
2022/10/31 05:18:24;;;;;;;27.37;16.17;;;;;;;;;;4468619;32;20240;-88
2022/10/31 05:20:54;;;;;;;36.20;18.60;;;;;;;;;;4468675;32;20238;-89
2022/10/31 05:23:21;;;;;;;36.37;16.87;;;;;;;;;;4468551;32;20272;-88
2022/10/31 05:25:48;;;;;;;35.73;18.43;;;;;;;;;;4468195;32;20219;-88
2022/10/31 05:28:17;;;;;;;35.77;18.53;;;;;;;;;;4467955;32;20229;-88
2022/10/31 05:30:44;;;;;;;36.27;18.77;;;;;;;;;;4466859;32;20247;-88
2022/10/31 05:33:11;;;;;;;39.13;18.17;;;;;;;;;;4466878;32;20240;-88
2022/10/31 05:35:38;;;;;;;42.63;19.73;;;;;;;;;;4467989;32;20247;-88
2022/10/31 05:38:05;;;;;;;36.83;20.17;;;;;;;;;;4466809;32;20236;-88
2022/10/31 05:40:32;;;;;;;46.40;20.43;;;;;;;;;;4467880;32;20228;-88
2022/10/31 05:43:02;;;;;;;45.90;23.27;;;;;;;;;;4468557;32;20216;-88
2022/10/31 05:45:30;;;;;;;44.10;22.73;;;;;;;;;;4466794;32;20219;-88
2022/10/31 05:47:58;;;;;;;41.30;21.77;;;;;;;;;;4467752;32;20229;-88
2022/10/31 05:50:27;;;;;;;60.90;27.13;;;;;;;;;;4467494;32;20239;-89
2022/10/31 05:52:59;;;;;;;55.73;27.40;;;;;;;;;;4468378;32;20301;-88
2022/10/31 05:55:27;;;;;;;38.33;22.50;;;;;;;;;;4467844;32;20216;-88
2022/10/31 05:57:57;;;;;;;54.27;24.97;;;;;;;;;;4467618;32;20367;-89
2022/10/31 06:00:25;;;;;;;49.97;25.30;;;;;;;;;;4470741;32;20278;-89
2022/10/31 06:03:00;;;;;;;49.17;27.17;;;;;;;;;;4470797;32;20216;-88
2022/10/31 06:05:27;;;;;;;56.67;31.07;;;;;;;;;;4471182;32;20212;-88
2022/10/31 06:07:54;;;;;;;55.73;31.80;;;;;;;;;;4470091;32;20228;-88
2022/10/31 06:10:21;;;;;;;56.33;31.80;;;;;;;;;;4470035;32;20640;-88
2022/10/31 06:12:49;;;;;;;52.80;32.53;;;;;;;;;;4470989;32;20315;-89
2022/10/31 06:15:16;;;;;;;61.47;33.70;;;;;;;;;;4470308;32;20584;-88
2022/10/31 06:17:43;;;;;;;67.90;34.27;;;;;;;;;;4471059;32;20279;-88
2022/10/31 06:20:12;;;;;;;50.27;31.80;;;;;;;;;;4469989;32;20266;-88
2022/10/31 06:22:39;;;;;;;55.43;34.43;;;;;;;;;;4471071;32;20261;-88
2022/10/31 06:25:06;;;;;;;60.63;33.63;;;;;;;;;;4470543;32;20211;-88
2022/10/31 06:27:33;;;;;;;52.83;31.87;;;;;;;;;;4469270;32;20621;-88
2022/10/31 06:30:00;;;;;;;46.33;30.33;;;;;;;;;;4457130;32;20248;-88
2022/10/31 06:32:30;;;;;;;54.00;33.30;;;;;;;;;;4470340;32;20284;-88
2022/10/31 06:34:56;;;;;;;47.47;29.57;;;;;;;;;;4470387;32;20669;-88
2022/10/31 06:37:25;;;;;;;62.70;31.90;;;;;;;;;;4469672;32;20273;-88
2022/10/31 06:39:52;;;;;;;43.60;29.63;;;;;;;;;;4469275;32;20223;-88
2022/10/31 06:42:18;;;;;;;48.63;29.80;;;;;;;;;;4468534;32;20244;-89
2022/10/31 06:44:45;;;;;;;46.30;28.13;;;;;;;;;;4470305;32;20211;-89
2022/10/31 06:47:12;;;;;;;45.17;28.63;;;;;;;;;;4468574;32;20240;-88
2022/10/31 06:49:40;;;;;;;57.83;27.33;;;;;;;;;;4470077;32;20510;-88
2022/10/31 06:52:07;;;;;;;44.67;25.50;;;;;;;;;;4469795;32;20665;-88
2022/10/31 06:54:35;;;;;;;41.63;25.40;;;;;;;;;;4470086;32;20731;-88
2022/10/31 06:57:05;;;;;;;47.60;25.37;;;;;;;;;;4470002;32;20232;-88
2022/10/31 06:59:31;;;;;;;50.80;22.60;;;;;;;;;;4469872;32;20226;-89
2022/10/31 07:02:00;;;;;;;30.23;17.57;;;;;;;;;;4468840;32;20256;-88
2022/10/31 07:04:27;;;;;;;29.20;19.77;;;;;;;;;;4470343;32;20253;-89
2022/10/31 07:06:55;;;;;;;47.37;20.87;;;;;;;;;;4469834;32;20353;-88
2022/10/31 07:09:22;;;;;;;50.07;20.33;;;;;;;;;;4469665;32;20252;-88
2022/10/31 07:11:53;;;;;;;38.93;19.40;;;;;;;;;;4470047;32;20692;-88
2022/10/31 07:14:20;;;;;;;28.80;16.27;;;;;;;;;;4470532;32;20236;-88
2022/10/31 07:16:49;;;;;;;56.77;17.73;;;;;;;;;;4469943;32;20224;-88
2022/10/31 07:19:16;;;;;;;30.73;15.43;;;;;;;;;;4470128;32;20287;-88
2022/10/31 07:21:43;;;;;;;43.60;16.10;;;;;;;;;;4469606;32;20236;-88
2022/10/31 07:24:09;;;;;;;21.53;15.67;;;;;;;;;;4469473;32;20244;-88
2022/10/31 07:26:37;;;;;;;27.33;16.43;;;;;;;;;;4468900;32;20304;-88
2022/10/31 07:29:05;;;;;;;43.67;18.77;;;;;;;;;;4469686;32;20268;-89
2022/10/31 07:31:32;;;;;;;40.27;19.60;;;;;;;;;;4469969;32;20220;-88
2022/10/31 07:33:58;;;;;;;31.90;19.03;;;;;;;;;;4469004;32;20208;-88
2022/10/31 07:36:28;;;;;;;41.43;18.40;;;;;;;;;;4468656;32;20246;-88
2022/10/31 07:38:55;;;;;;;31.47;17.73;;;;;;;;;;4468202;32;20304;-88
2022/10/31 07:41:22;;;;;;;25.60;15.50;;;;;;;;;;4469644;32;20235;-88
2022/10/31 07:43:49;;;;;;;36.17;16.63;;;;;;;;;;4469584;32;20204;-88
2022/10/31 07:46:18;;;;;;;31.17;17.87;;;;;;;;;;4469431;32;20228;-88
2022/10/31 07:48:45;;;;;;;34.77;18.10;;;;;;;;;;4469466;32;20324;-88
2022/10/31 07:51:12;;;;;;;28.87;16.30;;;;;;;;;;4469817;32;20224;-88
2022/10/31 07:53:38;;;;;;;32.47;14.77;;;;;;;;;;4469678;32;20226;-88
2022/10/31 07:56:06;;;;;;;30.83;17.73;;;;;;;;;;4469818;32;20220;-89
2022/10/31 07:58:33;;;;;;;27.77;17.20;;;;;;;;;;4469951;32;20272;-89
2022/10/31 08:01:00;;;;;;;40.50;16.23;;;;;;;;;;4468629;32;20281;-88
2022/10/31 08:03:28;;;;;;;28.03;14.67;;;;;;;;;;4469264;32;20234;-91
2022/10/31 08:05:55;;;;;;;28.10;14.00;;;;;;;;;;4470288;32;20648;-89
2022/10/31 08:08:24;;;;;;;38.50;15.00;;;;;;;;;;4470348;32;20240;-89
2022/10/31 08:10:54;;;;;;;27.00;13.50;;;;;;;;;;4469544;32;20236;-89
2022/10/31 08:13:20;;;;;;;25.40;14.03;;;;;;;;;;4469634;32;20216;-89
2022/10/31 08:15:50;;;;;;;27.65;14.60;;;;;;;;;;4468492;32;20232;-89
2022/10/31 08:18:17;;;;;;;23.50;13.65;;;;;;;;;;4473279;32;20208;-88
2022/10/31 08:20:46;;;;;;;31.50;13.98;;;;;;;;;;4482136;32;20295;-89
2022/10/31 08:23:13;;;;;;;33.30;14.77;;;;;;;;;;4482004;32;20203;-89
2022/10/31 08:25:41;;;;;;;31.27;14.65;;;;;;;;;;4472352;32;20674;-90
2022/10/31 08:28:11;;;;;;;36.67;15.10;;;;;;;;;;4470293;32;20243;-89
2022/10/31 08:30:38;;;;;;;38.15;17.10;;;;;;;;;;4469414;32;20355;-89
2022/10/31 08:33:11;;;;;;;39.17;15.80;;;;;;;;;;4469730;32;20332;-89
2022/10/31 08:35:37;;;;;;;32.67;16.90;;;;;;;;;;4468901;32;20228;-89
2022/10/31 08:38:07;;;;;;;32.05;14.82;;;;;;;;;;4468865;32;20295;-89
2022/10/31 08:40:35;;;;;;;27.50;14.77;;;;;;;;;;4467612;32;20266;-88
2022/10/31 08:43:04;;;;;;;29.63;15.10;;;;;;;;;;4468509;32;20208;-88
2022/10/31 08:45:32;;;;;;;30.15;15.55;;;;;;;;;;4468311;32;20744;-88
2022/10/31 08:48:00;;;;;;;37.22;14.65;;;;;;;;;;4468371;32;20228;-89
2022/10/31 08:50:27;;;;;;;22.83;13.75;;;;;;;;;;4468282;32;20272;-90
2022/10/31 08:52:55;;;;;;;27.30;14.07;;;;;;;;;;4468879;32;20253;-90
2022/10/31 08:55:27;;;;;;;39.03;13.73;;;;;;;;;;4468295;32;20215;-91
2022/10/31 08:57:56;;;;;;;28.05;11.38;;;;;;;;;;4468394;32;20526;-88
2022/10/31 09:00:23;;;;;;;23.98;10.32;;;;;;;;;;4467616;32;20238;-90
2022/10/31 09:02:56;;;;;;;26.85;9.35;;;;;;;;;;4468663;32;20270;-90
2022/10/31 09:05:23;;;;;;;35.60;8.27;;;;;;;;;;4467586;32;20212;-88
2022/10/31 09:07:51;;;;;;;19.87;7.45;;;;;;;;;;4467984;32;20255;-88
2022/10/31 09:10:18;;;;;;;21.00;7.55;;;;;;;;;;4466911;32;20220;-88
2022/10/31 09:12:46;;;;;;;14.85;7.20;;;;;;;;;;4468371;32;20326;-88
2022/10/31 09:15:16;;;;;;;15.25;5.93;;;;;;;;;;4468467;32;20260;-88
2022/10/31 09:17:47;;;;;;;21.48;6.93;;;;;;;;;;4468411;32;20285;-90
2022/10/31 09:20:14;;;;;;;16.17;5.80;;;;;;;;;;4468916;32;20208;-88
2022/10/31 09:22:41;;;;;;;12.88;6.15;;;;;;;;;;4467809;32;20315;-88
2022/10/31 09:25:08;;;;;;;24.73;5.40;;;;;;;;;;4467927;32;20208;-88
2022/10/31 09:27:37;;;;;;;18.05;5.57;;;;;;;;;;4468255;32;20232;-88
2022/10/31 09:30:06;;;;;;;8.48;4.72;;;;;;;;;;4467971;32;20247;-87
2022/10/31 09:32:41;;;;;;;15.48;4.30;;;;;;;;;;4468977;32;20654;-88
2022/10/31 09:35:09;;;;;;;21.62;5.10;;;;;;;;;;4471442;32;20227;-88
2022/10/31 09:37:36;;;;;;;17.90;4.95;;;;;;;;;;4470966;32;20216;-88
2022/10/31 09:40:04;;;;;;;18.48;5.05;;;;;;;;;;4469943;32;20227;-90
2022/10/31 09:42:52;;;;;;;17.98;5.00;;;;;;;;;;4471307;32;20254;-88
2022/10/31 09:45:27;;;;;;;13.55;4.57;;;;;;;;;;4471195;32;20280;-91
2022/10/31 09:48:17;;;;;;;20.52;5.47;;;;;;;;;;4471038;32;20291;-90
2022/10/31 09:50:47;;;;;;;10.07;4.57;;;;;;;;;;4470848;32;20597;-90
2022/10/31 09:53:24;;;;;;;13.32;4.40;;;;;;;;;;4471733;32;20256;-88
2022/10/31 09:55:52;;;;;;;16.42;5.07;;;;;;;;;;4469937;32;20274;-90
2022/10/31 09:58:26;;;;;;;9.40;4.35;;;;;;;;;;4471231;32;20223;-90
2022/10/31 10:01:00;;;;;;;11.50;4.55;;;;;;;;;;4470476;32;20243;-89
2022/10/31 10:03:35;;;;;;;10.80;4.78;;;;;;;;;;4470975;32;20275;-90
2022/10/31 10:06:11;;;;;;;14.07;4.82;;;;;;;;;;4470707;32;20660;-90
2022/10/31 10:08:38;;;;;;;14.80;3.60;;;;;;;;;;4470219;32;20315;-90
2022/10/31 10:11:21;;;;;;;9.48;3.78;;;;;;;;;;4470300;32;20783;-87
2022/10/31 10:14:06;;;;;;;7.95;3.75;;;;;;;;;;4470084;32;20207;-87
2022/10/31 10:16:54;;;;;;;29.77;5.15;;;;;;;;;;4470356;32;20280;-87
2022/10/31 10:19:34;;;;;;;16.90;4.28;;;;;;;;;;4471125;32;20582;-87
2022/10/31 10:22:10;;;;;;;9.10;3.92;;;;;;;;;;4471488;32;20227;-92
2022/10/31 10:24:54;;;;;;;12.35;3.72;;;;;;;;;;4470993;32;20219;-89
2022/10/31 10:27:32;;;;;;;8.98;3.35;;;;;;;;;;4471045;32;20204;-89
2022/10/31 10:30:06;;;;;;;9.45;3.60;;;;;;;;;;4470765;32;20231;-89
2022/10/31 10:32:44;;;;;;;12.55;3.78;;;;;;;;;;4470831;32;20260;-90
2022/10/31 10:35:20;;;;;;;13.38;3.65;;;;;;;;;;4470738;32;20227;-89
2022/10/31 10:37:50;;;;;;;8.68;3.55;;;;;;;;;;4470776;32;20268;-89
2022/10/31 10:40:19;;;;;;;12.75;3.83;;;;;;;;;;4470350;32;20311;-89
2022/10/31 10:48:31;;;;;;;9.85;3.25;;;;;;;;;;4469329;32;20288;-88
2022/10/31 10:50:59;;;;;;;12.82;4.05;;;;;;;;;;4470027;32;20228;-89
2022/10/31 10:54:00;;;;;;;9.73;3.03;;;;;;;;;;4470684;32;20226;-89
2022/10/31 10:56:38;;;;;;;13.30;2.95;;;;;;;;;;4469921;32;20278;-88
2022/10/31 10:59:06;;;;;;;8.05;2.67;;;;;;;;;;4470561;32;20204;-89
2022/10/31 11:01:36;;;;;;;5.93;2.80;;;;;;;;;;4470335;32;20612;-89
2022/10/31 11:04:24;;;;;;;9.20;2.22;;;;;;;;;;4473674;32;20165;-89
2022/10/31 11:07:03;;;;;;;14.27;3.45;;;;;;;;;;4486309;32;20196;-88
2022/10/31 11:09:30;;;;;;;11.27;2.87;;;;;;;;;;4487613;32;20201;-87
2022/10/31 11:11:58;;;;;;;12.82;3.22;;;;;;;;;;4485104;32;20299;-89
2022/10/31 11:14:27;;;;;;;14.52;2.72;;;;;;;;;;4472817;32;20212;-89
2022/10/31 11:17:08;;;;;;;23.20;3.62;;;;;;;;;;4470788;32;20276;-88
2022/10/31 11:19:37;;;;;;;15.45;3.10;;;;;;;;;;4470538;32;20204;-90
2022/10/31 11:22:20;;;;;;;12.50;3.10;;;;;;;;;;4471805;32;20249;-88
2022/10/31 11:24:47;;;;;;;17.30;3.70;;;;;;;;;;4471150;32;20228;-89
2022/10/31 11:27:27;;;;;;;9.57;3.25;;;;;;;;;;4471386;32;20232;-89
2022/10/31 11:30:04;;;;;;;19.12;4.78;;;;;;;;;;4470257;32;20255;-86
2022/10/31 11:32:43;;;;;;;11.32;3.65;;;;;;;;;;4469583;32;20291;-87
2022/10/31 11:35:17;;;;;;;10.57;2.62;;;;;;;;;;4470095;32;20620;-88
2022/10/31 11:37:46;;;;;;;11.90;2.55;;;;;;;;;;4469536;32;20238;-89
2022/10/31 11:40:18;;;;;;;11.95;3.50;;;;;;;;;;4469430;32;20216;-89
2022/10/31 11:42:47;;;;;;;11.45;3.83;;;;;;;;;;4468254;32;20743;-88
2022/10/31 11:45:17;;;;;;;15.32;3.45;;;;;;;;;;4468087;32;20275;-88
2022/10/31 11:47:48;;;;;;;10.30;3.55;;;;;;;;;;4469221;32;20728;-88
2022/10/31 11:50:21;;;;;;;12.40;3.17;;;;;;;;;;4469808;32;20216;-87
2022/10/31 11:52:51;;;;;;;13.15;2.60;;;;;;;;;;4469576;32;20288;-88
2022/10/31 11:55:32;;;;;;;16.87;4.55;;;;;;;;;;4469006;32;20661;-88
2022/10/31 11:57:59;;;;;;;13.75;5.30;;;;;;;;;;4469033;32;20212;-88
2022/10/31 12:00:29;;;;;;;8.32;3.53;;;;;;;;;;4469098;32;20300;-88
2022/10/31 12:03:12;;;;;;;13.70;3.62;;;;;;;;;;4469049;32;20220;-88
2022/10/31 12:05:46;;;;;;;16.25;6.12;;;;;;;;;;4469494;32;20229;-88
2022/10/31 12:08:14;;;;;;;19.10;5.60;;;;;;;;;;4470155;32;20268;-88
2022/10/31 12:10:51;;;;;;;24.48;5.10;;;;;;;;;;4469122;32;20271;-88
2022/10/31 12:13:39;;;;;;;10.50;3.25;;;;;;;;;;4469411;32;20540;-89
2022/10/31 12:16:13;;;;;;;14.77;2.97;;;;;;;;;;4469404;32;20325;-89
2022/10/31 12:18:58;;;;;;;19.35;2.60;;;;;;;;;;4468999;32;20223;-89
2022/10/31 12:21:49;;;;;;;18.17;3.20;;;;;;;;;;4468613;32;20216;-90
2022/10/31 12:24:30;;;;;;;72.07;5.57;;;;;;;;;;4469115;32;20604;-89
2022/10/31 12:27:11;;;;;;;20.67;4.20;;;;;;;;;;4468370;32;20298;-89
2022/10/31 12:29:53;;;;;;;16.87;2.50;;;;;;;;;;4468914;32;20268;-89
2022/10/31 12:32:32;;;;;;;9.55;2.22;;;;;;;;;;4468585;32;20284;-88
2022/10/31 12:38:14;;;;;;;8.38;2.75;;;;;;;;;;4473875;32;20313;-88
2022/10/31 12:40:59;;;;;;;10.13;1.98;;;;;;;;;;4471530;32;20224;-89
2022/10/31 12:43:37;;;;;;;16.62;2.75;;;;;;;;;;4470870;32;20238;-89
2022/10/31 12:46:08;;;;;;;10.75;2.40;;;;;;;;;;4470080;32;20220;-89
2022/10/31 12:49:02;;;;;;;9.15;2.72;;;;;;;;;;4468722;32;20295;-89
2022/10/31 12:51:39;;;;;;;14.25;3.05;;;;;;;;;;4469178;32;20265;-89
2022/10/31 12:54:37;;;;;;;10.88;2.62;;;;;;;;;;4469105;32;20311;-89
2022/10/31 12:57:14;;;;;;;19.25;2.70;;;;;;;;;;4468411;32;20314;-89
2022/10/31 12:59:45;;;;;;;14.32;3.25;;;;;;;;;;4468958;32;20636;-89
2022/10/31 13:02:20;;;;;;;12.65;2.58;;;;;;;;;;4468175;32;20697;-88
2022/10/31 13:04:52;;;;;;;17.20;3.33;;;;;;;;;;4468522;32;20271;-89
2022/10/31 13:07:25;;;;;;;11.55;2.42;;;;;;;;;;4467818;32;20296;-88
2022/10/31 13:10:00;;;;;;;7.00;2.47;;;;;;;;;;4467463;32;20326;-89
2022/10/31 13:12:30;;;;;;;18.30;4.90;;;;;;;;;;4468210;32;20298;-88
2022/10/31 13:15:00;;;;;;;20.27;4.55;;;;;;;;;;4468232;32;20647;-88
2022/10/31 13:17:36;;;;;;;13.95;6.10;;;;;;;;;;4468119;32;20224;-88
2022/10/31 13:20:20;;;;;;;18.62;5.28;;;;;;;;;;4468474;32;20208;-89
2022/10/31 13:22:51;;;;;;;13.62;4.35;;;;;;;;;;4468724;32;20687;-88
2022/10/31 13:25:24;;;;;;;16.42;4.70;;;;;;;;;;4468154;32;20234;-89
2022/10/31 13:27:56;;;;;;;14.90;4.55;;;;;;;;;;4468078;32;20216;-89
2022/10/31 13:30:25;;;;;;;13.82;3.33;;;;;;;;;;4468301;32;20260;-89
2022/10/31 13:32:56;;;;;;;17.62;3.67;;;;;;;;;;4468714;32;20208;-89
2022/10/31 13:35:35;;;;;;;10.02;3.22;;;;;;;;;;4468287;32;20277;-89
2022/10/31 13:38:12;;;;;;;8.80;3.72;;;;;;;;;;4468370;32;20287;-88
2022/10/31 13:40:48;;;;;;;14.18;3.15;;;;;;;;;;4468399;32;20269;-88
2022/10/31 13:43:24;;;;;;;13.98;3.83;;;;;;;;;;4468753;32;20600;-88
2022/10/31 13:45:57;;;;;;;13.62;2.87;;;;;;;;;;4468350;32;20268;-88
2022/10/31 13:48:40;;;;;;;17.48;4.12;;;;;;;;;;4468219;32;20740;-89
2022/10/31 13:51:11;;;;;;;16.62;3.90;;;;;;;;;;4467168;32;20303;-89
2022/10/31 13:53:46;;;;;;;13.38;4.15;;;;;;;;;;4469508;32;20518;-89
2022/10/31 13:56:19;;;;;;;12.85;3.97;;;;;;;;;;4468202;32;20258;-89
2022/10/31 13:59:00;;;;;;;13.43;2.95;;;;;;;;;;4468500;32;20236;-88
2022/10/31 14:01:31;;;;;;;14.35;4.25;;;;;;;;;;4468120;32;20298;-89
2022/10/31 14:04:07;;;;;;;11.55;4.07;;;;;;;;;;4468102;32;20242;-89
2022/10/31 14:06:45;;;;;;;11.52;3.10;;;;;;;;;;4468427;32;20256;-89
2022/10/31 14:09:24;;;;;;;14.98;3.87;;;;;;;;;;4467840;32;20283;-88
2022/10/31 14:11:53;;;;;;;13.07;4.28;;;;;;;;;;4466992;32;20656;-89
2022/10/31 14:14:21;;;;;;;13.55;4.80;;;;;;;;;;4467600;32;20261;-89
2022/10/31 14:16:56;;;;;;;11.90;3.60;;;;;;;;;;4468231;32;20292;-89
2022/10/31 14:19:23;;;;;;;16.40;4.47;;;;;;;;;;4469151;32;20268;-87
2022/10/31 14:21:52;;;;;;;13.25;5.00;;;;;;;;;;4470611;32;20216;-89
2022/10/31 14:24:33;;;;;;;17.35;4.72;;;;;;;;;;4470572;32;20224;-89
2022/10/31 14:27:36;;;;;;;12.40;3.95;;;;;;;;;;4470904;32;20576;-89
2022/10/31 14:30:22;;;;;;;26.55;4.50;;;;;;;;;;4470900;32;20596;-89
2022/10/31 14:32:55;;;;;;;9.85;3.75;;;;;;;;;;4469275;32;20240;-89
2022/10/31 14:35:27;;;;;;;22.17;4.12;;;;;;;;;;4470994;32;20219;-89
2022/10/31 14:38:40;;;;;;;13.43;3.78;;;;;;;;;;4470871;32;20728;-89
2022/10/31 14:41:41;;;;;;;13.75;4.97;;;;;;;;;;4458606;32;20232;-88
2022/10/31 14:44:39;;;;;;;23.60;4.35;;;;;;;;;;4468697;32;20775;-91
2022/10/31 14:47:16;;;;;;;21.60;5.22;;;;;;;;;;4470797;32;20204;-88
2022/10/31 14:50:05;;;;;;;17.60;5.12;;;;;;;;;;4470137;32;20288;-89
2022/10/31 14:52:33;;;;;;;20.98;5.25;;;;;;;;;;4470530;32;20224;-88
2022/10/31 14:55:02;;;;;;;25.58;6.10;;;;;;;;;;4470657;32;20212;-89
2022/10/31 14:57:36;;;;;;;16.50;5.00;;;;;;;;;;4470322;32;20219;-89
2022/10/31 15:00:20;;;;;;;14.90;4.95;;;;;;;;;;4470376;32;20223;-89